Time;durP1;ratioP1;P1;durP2;ratioP2;P2;SDS_P1;SDS_P2;PMS_P1;PMS_P2;Temp;Humidity;BMP_temperature;BMP_pressure;BME280_temperature;BME280_humidity;BME280_pressure;Samples;Min_cycle;Max_cycle;Signal;HPM_P1;HPM_P2
2022/06/26 00:00:07;;;;;;;11.77;4.63;;;16.80;99.90;;;;;;4390041;28;656791;-64
2022/06/26 00:02:55;;;;;;;11.83;4.60;;;16.60;99.90;;;;;;4407370;28;658196;-64
2022/06/26 00:05:43;;;;;;;9.87;4.63;;;16.40;99.90;;;;;;4412823;28;657134;-64
2022/06/26 00:08:31;;;;;;;8.97;4.20;;;16.30;99.90;;;;;;4391232;28;656569;-63
2022/06/26 00:11:18;;;;;;;7.20;4.53;;;16.30;99.90;;;;;;4414708;28;657984;-63
2022/06/26 00:14:05;;;;;;;7.67;4.50;;;16.10;99.90;;;;;;4393638;28;656694;-64
2022/06/26 00:16:52;;;;;;;6.53;4.07;;;16.10;99.90;;;;;;4414375;28;657824;-63
2022/06/26 00:19:39;;;;;;;5.60;4.40;;;16.00;99.90;;;;;;4407694;28;656611;-64
2022/06/26 00:22:28;;;;;;;8.50;4.30;;;16.00;99.90;;;;;;4389694;28;657467;-64
2022/06/26 00:25:15;;;;;;;7.80;3.90;;;15.90;99.90;;;;;;4395034;28;656624;-63
2022/06/26 00:28:02;;;;;;;9.93;4.43;;;15.90;99.90;;;;;;4413773;28;656723;-64
2022/06/26 00:30:49;;;;;;;6.47;3.77;;;16.00;99.90;;;;;;4394602;28;657326;-63
2022/06/26 00:33:36;;;;;;;5.53;3.53;;;15.90;99.90;;;;;;4379021;28;656898;-64
2022/06/26 00:36:24;;;;;;;9.20;3.50;;;15.90;99.90;;;;;;4395500;28;657370;-63
2022/06/26 00:39:12;;;;;;;7.70;4.20;;;15.60;99.90;;;;;;4376502;28;656538;-63
2022/06/26 00:41:59;;;;;;;6.67;3.70;;;15.50;99.90;;;;;;4398598;28;656689;-64
2022/06/26 00:44:47;;;;;;;8.33;4.60;;;15.30;99.90;;;;;;4373449;28;657190;-63
2022/06/26 00:47:34;;;;;;;8.80;4.50;;;15.40;99.90;;;;;;4395910;28;656897;-63
2022/06/26 00:50:21;;;;;;;5.77;4.10;;;15.30;99.90;;;;;;4376269;28;656517;-63
2022/06/26 00:53:08;;;;;;;8.63;4.17;;;15.30;99.90;;;;;;4394158;28;657278;-63
2022/06/26 00:55:57;;;;;;;9.33;4.10;;;15.30;99.90;;;;;;4373615;28;656485;-63
2022/06/26 00:58:44;;;;;;;6.63;4.10;;;15.30;99.90;;;;;;4392676;28;656615;-63
2022/06/26 01:01:31;;;;;;;6.20;3.87;;;15.30;99.90;;;;;;4375680;28;656741;-64
2022/06/26 01:04:18;;;;;;;6.57;4.80;;;15.00;99.90;;;;;;4391582;28;656964;-63
2022/06/26 01:07:06;;;;;;;10.13;4.60;;;15.00;99.90;;;;;;4375563;28;656355;-64
2022/06/26 01:09:53;;;;;;;11.47;4.63;;;15.00;99.90;;;;;;4393834;28;658641;-66
2022/06/26 01:12:41;;;;;;;7.10;4.60;;;14.90;99.90;;;;;;4378546;28;657762;-66
2022/06/26 01:15:29;;;;;;;8.90;4.70;;;15.00;99.90;;;;;;4400611;28;656611;-65
2022/06/26 01:18:16;;;;;;;7.33;4.10;;;14.90;99.90;;;;;;4375127;28;656937;-65
2022/06/26 01:21:03;;;;;;;6.63;4.20;;;14.70;99.90;;;;;;4398753;28;657044;-65
2022/06/26 01:23:51;;;;;;;8.23;4.10;;;14.80;99.90;;;;;;4374923;28;657014;-66
2022/06/26 01:26:40;;;;;;;8.47;4.00;;;14.80;99.90;;;;;;4391302;28;656973;-66
2022/06/26 01:29:27;;;;;;;8.07;4.40;;;14.70;99.90;;;;;;4384330;28;656498;-65
2022/06/26 01:32:14;;;;;;;9.43;5.20;;;14.40;99.90;;;;;;4407466;28;656494;-66
2022/06/26 01:35:01;;;;;;;11.20;4.77;;;14.40;99.90;;;;;;4390247;28;659565;-65
2022/06/26 01:37:48;;;;;;;12.37;4.77;;;14.30;99.90;;;;;;4407460;28;658220;-65
2022/06/26 01:40:36;;;;;;;7.22;4.53;;;14.30;99.90;;;;;;4391304;28;657471;-66
2022/06/26 01:43:25;;;;;;;9.57;4.53;;;14.20;99.90;;;;;;4410931;28;655660;-66
2022/06/26 01:46:12;;;;;;;7.63;4.57;;;14.20;99.90;;;;;;4387418;28;658212;-65
2022/06/26 01:48:59;;;;;;;9.50;5.17;;;14.10;99.90;;;;;;4410348;28;656547;-66
2022/06/26 01:51:46;;;;;;;11.20;5.33;;;14.10;99.90;;;;;;4388391;28;657129;-66
2022/06/26 01:54:33;;;;;;;14.33;5.60;;;14.10;99.90;;;;;;4408466;28;658252;-65
2022/06/26 01:57:21;;;;;;;13.30;5.57;;;14.00;99.90;;;;;;4388779;28;657326;-65
2022/06/26 02:00:09;;;;;;;8.70;5.40;;;14.00;99.90;;;;;;4408273;28;658007;-66
2022/06/26 02:02:57;;;;;;;10.30;4.80;;;14.00;99.90;;;;;;4391422;28;658439;-66
2022/06/26 02:05:44;;;;;;;7.80;4.63;;;13.90;99.90;;;;;;4407264;28;657137;-66
2022/06/26 02:08:31;;;;;;;9.97;4.90;;;13.90;99.90;;;;;;4390767;28;656180;-65
2022/06/26 02:14:24;;;;;;;7.20;4.47;;;13.80;99.90;;;;;;4388526;28;658204;-66
2022/06/26 02:17:11;;;;;;;7.30;4.50;;;13.70;99.90;;;;;;4387960;28;656707;-66
2022/06/26 02:19:58;;;;;;;7.10;4.80;;;13.60;99.90;;;;;;4409133;28;657721;-65
2022/06/26 02:22:45;;;;;;;8.10;4.73;;;13.70;99.90;;;;;;4389500;28;657442;-66
2022/06/26 02:25:32;;;;;;;7.20;4.57;;;13.70;99.90;;;;;;4408427;28;657588;-65
2022/06/26 02:28:20;;;;;;;8.77;4.60;;;13.60;99.90;;;;;;4404460;28;656905;-66
2022/06/26 02:31:09;;;;;;;6.53;4.53;;;13.60;99.90;;;;;;4411723;28;656947;-65
2022/06/26 02:33:56;;;;;;;9.13;5.13;;;13.60;99.90;;;;;;4388876;28;656411;-65
2022/06/26 02:36:43;;;;;;;8.47;4.77;;;13.60;99.90;;;;;;4409662;28;657712;-66
2022/06/26 02:39:30;;;;;;;10.67;4.63;;;13.60;99.90;;;;;;4390223;28;656892;-65
2022/06/26 02:42:17;;;;;;;11.63;5.37;;;13.60;99.90;;;;;;4406421;28;658580;-66
2022/06/26 02:45:06;;;;;;;9.23;4.80;;;13.70;99.90;;;;;;4406512;28;657538;-63
2022/06/26 02:47:54;;;;;;;8.20;4.83;;;13.40;99.90;;;;;;4384662;28;657034;-65
2022/06/26 02:50:41;;;;;;;8.03;4.93;;;13.40;99.90;;;;;;4383394;28;656696;-66
2022/06/26 02:53:28;;;;;;;8.23;5.17;;;13.40;99.90;;;;;;4408970;28;657059;-66
2022/06/26 02:56:15;;;;;;;7.17;5.20;;;13.40;99.90;;;;;;4387343;28;656896;-65
2022/06/26 02:59:03;;;;;;;7.63;4.90;;;13.50;99.90;;;;;;4408091;28;657552;-65
2022/06/26 03:01:50;;;;;;;11.07;4.93;;;13.40;99.90;;;;;;4391693;28;656480;-66
2022/06/26 03:04:39;;;;;;;10.03;5.33;;;13.40;99.90;;;;;;4407143;28;657990;-65
2022/06/26 03:07:26;;;;;;;7.43;4.97;;;13.50;99.90;;;;;;4388544;28;658270;-66
2022/06/26 03:10:13;;;;;;;7.03;5.00;;;13.40;99.90;;;;;;4405609;28;656975;-66
2022/06/26 03:13:00;;;;;;;6.37;5.07;;;13.50;99.90;;;;;;4389006;28;656649;-66
2022/06/26 03:15:47;;;;;;;12.10;4.97;;;13.50;99.90;;;;;;4411051;28;657502;-66
2022/06/26 03:18:35;;;;;;;7.67;4.83;;;13.60;99.90;;;;;;4407649;28;658141;-65
2022/06/26 03:21:24;;;;;;;11.38;4.93;;;13.70;99.90;;;;;;4414113;28;658338;-66
2022/06/26 03:24:11;;;;;;;6.83;4.87;;;13.70;99.90;;;;;;4388627;28;658779;-66
2022/06/26 03:26:58;;;;;;;8.90;4.90;;;13.70;99.90;;;;;;4413970;28;657144;-66
2022/06/26 03:29:45;;;;;;;8.80;4.97;;;13.80;99.90;;;;;;4394890;28;656871;-66
2022/06/26 03:32:32;;;;;;;10.93;5.10;;;14.00;99.90;;;;;;4415269;28;657074;-66
2022/06/26 03:35:19;;;;;;;9.77;5.20;;;14.30;99.90;;;;;;4409103;28;657609;-65
2022/06/26 03:38:10;;;;;;;12.80;4.77;;;14.30;99.90;;;;;;4391085;28;656703;-66
2022/06/26 03:40:57;;;;;;;8.70;5.10;;;14.30;99.90;;;;;;4385702;28;658508;-66
2022/06/26 03:43:44;;;;;;;8.23;5.10;;;14.20;99.90;;;;;;4408706;28;656207;-66
2022/06/26 03:46:31;;;;;;;6.70;4.97;;;14.40;99.90;;;;;;4387279;28;656745;-66
2022/06/26 03:49:18;;;;;;;6.87;4.30;;;14.50;99.90;;;;;;4409779;28;657320;-65
2022/06/26 03:52:06;;;;;;;7.60;4.63;;;14.60;99.90;;;;;;4390925;28;656508;-66
2022/06/26 03:54:55;;;;;;;9.57;5.00;;;14.80;99.90;;;;;;4410231;28;657055;-66
2022/06/26 03:57:42;;;;;;;9.80;4.57;;;14.90;99.90;;;;;;4385528;28;658160;-66
2022/06/26 04:00:29;;;;;;;7.87;5.03;;;15.00;99.90;;;;;;4409931;28;657063;-66
2022/06/26 04:03:16;;;;;;;7.25;4.70;;;15.10;99.90;;;;;;4390774;28;656704;-66
2022/06/26 04:06:03;;;;;;;9.70;5.23;;;15.10;99.90;;;;;;4410073;28;657246;-66
2022/06/26 04:08:51;;;;;;;8.10;4.90;;;15.30;99.90;;;;;;4390269;28;656889;-66
2022/06/26 04:11:39;;;;;;;7.60;4.80;;;15.40;99.90;;;;;;4412720;28;656656;-66
2022/06/26 04:14:27;;;;;;;9.27;5.07;;;15.60;99.90;;;;;;4386982;28;657414;-66
2022/06/26 04:17:14;;;;;;;8.47;4.80;;;15.80;99.90;;;;;;4409072;28;656123;-66
2022/06/26 04:20:01;;;;;;;8.50;4.90;;;15.80;99.90;;;;;;4390805;28;656626;-66
2022/06/26 04:22:56;;;;;;;17.23;5.00;;;16.00;99.90;;;;;;4407465;28;657373;-66
2022/06/26 04:25:43;;;;;;;9.10;5.03;;;16.20;99.90;;;;;;4388276;28;657935;-66
2022/06/26 04:28:32;;;;;;;14.80;5.20;;;16.50;99.90;;;;;;4390942;28;656616;-66
2022/06/26 04:31:19;;;;;;;10.33;6.10;;;16.70;99.90;;;;;;4407518;28;657525;-66
2022/06/26 04:34:06;;;;;;;12.97;6.10;;;16.80;99.90;;;;;;4388216;28;657818;-66
2022/06/26 04:36:53;;;;;;;10.40;5.17;;;17.10;99.90;;;;;;4411868;28;659296;-66
2022/06/26 04:39:40;;;;;;;11.57;6.10;;;17.10;99.90;;;;;;4388377;28;657713;-66
2022/06/26 04:42:27;;;;;;;11.63;6.30;;;17.40;99.90;;;;;;4412139;28;658802;-66
2022/06/26 04:45:16;;;;;;;15.13;6.93;;;17.60;99.90;;;;;;4408602;28;657669;-66
2022/06/26 04:48:03;;;;;;;11.23;6.20;;;17.70;99.90;;;;;;4386430;28;658706;-66
2022/06/26 04:50:50;;;;;;;10.37;5.90;;;17.80;99.90;;;;;;4386372;28;657848;-66
2022/06/26 04:53:38;;;;;;;11.50;4.73;;;18.00;99.90;;;;;;4407999;28;658262;-64
2022/06/26 04:56:25;;;;;;;8.33;4.43;;;18.30;99.90;;;;;;4389741;28;657475;-64
2022/06/26 04:59:12;;;;;;;10.77;4.70;;;18.50;99.90;;;;;;4409359;28;657298;-64
2022/06/26 05:02:01;;;;;;;8.67;4.93;;;18.60;99.90;;;;;;4405695;28;658133;-64
2022/06/26 05:04:49;;;;;;;9.10;5.07;;;18.70;99.90;;;;;;4408899;28;656585;-64
2022/06/26 05:07:36;;;;;;;11.07;5.33;;;18.80;99.90;;;;;;4387807;28;656822;-64
2022/06/26 05:10:23;;;;;;;9.97;5.17;;;18.90;99.90;;;;;;4412131;28;658515;-64
2022/06/26 05:13:10;;;;;;;13.43;4.83;;;18.90;99.90;;;;;;4395870;28;656886;-64
2022/06/26 05:15:58;;;;;;;9.73;4.13;;;19.10;99.90;;;;;;4412469;28;658920;-64
2022/06/26 05:18:46;;;;;;;8.63;4.33;;;19.30;99.90;;;;;;4401587;28;656950;-64
2022/06/26 05:21:33;;;;;;;8.30;4.10;;;19.30;99.90;;;;;;4409636;28;657084;-64
2022/06/26 05:24:21;;;;;;;12.40;4.53;;;19.50;99.90;;;;;;4388925;28;657441;-64
2022/06/26 05:27:08;;;;;;;10.07;4.57;;;19.60;99.90;;;;;;4410742;28;657997;-64
2022/06/26 05:29:55;;;;;;;6.83;4.37;;;19.80;99.90;;;;;;4396144;28;658035;-64
2022/06/26 05:32:42;;;;;;;6.38;3.92;;;20.00;99.90;;;;;;4413325;28;657703;-64
2022/06/26 05:35:31;;;;;;;8.30;4.57;;;20.20;99.90;;;;;;4409040;28;657678;-64
2022/06/26 05:38:18;;;;;;;10.20;4.63;;;20.30;99.90;;;;;;4385133;28;657351;-64
2022/06/26 05:41:05;;;;;;;9.03;4.70;;;20.50;99.90;;;;;;4391455;28;658578;-65
2022/06/26 05:43:52;;;;;;;9.47;4.03;;;20.60;99.90;;;;;;4406880;28;657870;-64
2022/06/26 05:46:41;;;;;;;9.17;4.73;;;20.70;99.90;;;;;;4407952;28;658537;-64
2022/06/26 05:49:29;;;;;;;7.23;4.20;;;20.90;99.90;;;;;;4409568;28;657458;-64
2022/06/26 05:52:17;;;;;;;6.53;4.60;;;21.10;99.90;;;;;;4392132;28;656385;-64
2022/06/26 05:55:05;;;;;;;9.10;5.00;;;21.20;99.90;;;;;;4409114;28;656870;-64
2022/06/26 05:57:52;;;;;;;6.50;4.57;;;21.20;99.90;;;;;;4385061;28;656928;-64
2022/06/26 06:00:39;;;;;;;6.80;4.90;;;21.40;99.90;;;;;;4406078;28;656451;-64
2022/06/26 06:03:26;;;;;;;11.53;5.10;;;21.40;99.90;;;;;;4386970;28;656202;-64
2022/06/26 06:06:13;;;;;;;11.37;4.77;;;21.50;99.90;;;;;;4408212;28;658263;-64
2022/06/26 06:09:02;;;;;;;7.47;4.93;;;21.60;99.90;;;;;;4389313;28;659180;-64
2022/06/26 06:11:49;;;;;;;9.63;5.27;;;21.70;99.90;;;;;;4406867;28;656523;-64
2022/06/26 06:14:36;;;;;;;10.53;4.70;;;21.80;99.90;;;;;;4389555;28;656411;-64
2022/06/26 06:17:40;;;;;;;11.67;4.57;;;22.10;99.90;;;;;;4404734;28;658006;-64
2022/06/26 06:20:27;;;;;;;8.67;4.87;;;22.10;99.90;;;;;;4387396;28;657782;-64
2022/06/26 06:23:14;;;;;;;10.47;5.50;;;22.20;99.90;;;;;;4407162;28;658655;-65
2022/06/26 06:26:03;;;;;;;6.63;4.87;;;22.40;99.90;;;;;;4384137;28;658320;-64
2022/06/26 06:28:50;;;;;;;11.30;5.23;;;22.40;99.90;;;;;;4399164;28;656406;-65
2022/06/26 06:31:37;;;;;;;6.83;4.77;;;22.60;99.90;;;;;;4411520;28;658112;-64
2022/06/26 06:34:24;;;;;;;6.33;4.60;;;22.80;99.90;;;;;;4409968;28;657641;-64
2022/06/26 06:37:11;;;;;;;8.60;4.80;;;22.90;99.90;;;;;;4381666;28;657594;-65
2022/06/26 06:39:58;;;;;;;6.70;4.63;;;22.90;99.90;;;;;;4411571;28;656646;-65
2022/06/26 06:42:47;;;;;;;8.03;4.50;;;23.40;99.90;;;;;;4393106;28;657426;-65
2022/06/26 06:45:34;;;;;;;8.00;4.70;;;23.60;99.90;;;;;;4412332;28;656794;-64
2022/06/26 06:48:24;;;;;;;8.87;4.40;;;23.90;99.90;;;;;;4397793;28;656654;-65
2022/06/26 06:51:11;;;;;;;8.27;4.07;;;24.10;99.90;;;;;;4388704;28;656983;-65
2022/06/26 06:53:58;;;;;;;7.03;4.20;;;24.20;98.70;;;;;;4412120;28;656898;-65
2022/06/26 06:56:45;;;;;;;7.07;4.20;;;24.20;96.70;;;;;;4395041;28;656292;-65
2022/06/26 06:59:34;;;;;;;8.73;4.20;;;24.20;91.00;;;;;;4411772;28;657988;-65
2022/06/26 07:02:21;;;;;;;6.10;4.50;;;24.40;92.80;;;;;;4389063;28;656683;-65
2022/06/26 07:05:09;;;;;;;11.70;4.22;;;24.50;93.20;;;;;;4410218;28;657818;-65
2022/06/26 07:07:56;;;;;;;10.00;4.47;;;24.60;99.90;;;;;;4391443;28;657781;-65
2022/06/26 07:10:43;;;;;;;6.55;4.28;;;24.70;99.90;;;;;;4408673;28;658736;-65
2022/06/26 07:13:30;;;;;;;5.38;4.03;;;24.90;99.90;;;;;;4392577;28;656498;-65
2022/06/26 07:16:19;;;;;;;10.20;4.53;;;25.10;92.40;;;;;;4415812;28;657336;-65
2022/06/26 07:19:06;;;;;;;6.88;4.63;;;24.90;96.00;;;;;;4387129;28;657707;-65
2022/06/26 07:21:53;;;;;;;9.07;4.95;;;25.10;95.80;;;;;;4407008;28;657487;-64
2022/06/26 07:24:40;;;;;;;9.30;4.65;;;25.30;91.40;;;;;;4392427;28;656595;-65
2022/06/26 07:27:27;;;;;;;7.78;4.80;;;25.30;91.90;;;;;;4414274;28;657112;-64
2022/06/26 07:30:15;;;;;;;8.50;4.10;;;25.30;92.70;;;;;;4410673;28;656424;-65
2022/06/26 07:33:05;;;;;;;6.97;3.75;;;25.50;81.00;;;;;;4392030;28;657124;-65
2022/06/26 07:35:52;;;;;;;6.72;3.88;;;25.40;90.50;;;;;;4393265;28;657777;-65
2022/06/26 07:38:39;;;;;;;7.93;3.83;;;25.70;70.00;;;;;;4412662;28;656810;-65
2022/06/26 07:41:26;;;;;;;8.13;3.72;;;25.70;75.50;;;;;;4390238;28;656460;-65
2022/06/26 07:44:14;;;;;;;8.15;3.75;;;25.60;71.30;;;;;;4410653;28;657545;-65
2022/06/26 07:47:01;;;;;;;13.75;3.60;;;25.80;68.10;;;;;;4391111;28;656740;-65
2022/06/26 07:49:49;;;;;;;13.60;3.47;;;25.70;72.70;;;;;;4408612;28;658631;-65
2022/06/26 07:52:36;;;;;;;5.15;3.40;;;25.80;67.40;;;;;;4384511;28;657735;-65
2022/06/26 07:55:23;;;;;;;9.98;3.78;;;26.00;71.40;;;;;;4410250;28;656691;-65
2022/06/26 07:58:11;;;;;;;8.43;3.28;;;26.20;67.00;;;;;;4389538;28;656188;-64
2022/06/26 08:00:58;;;;;;;4.90;3.35;;;26.20;60.50;;;;;;4412310;28;656931;-65
2022/06/26 08:03:45;;;;;;;9.32;3.55;;;26.40;61.30;;;;;;4392543;28;657199;-65
2022/06/26 08:06:34;;;;;;;9.40;3.40;;;26.60;62.20;;;;;;4412116;28;656899;-65
2022/06/26 08:09:21;;;;;;;8.45;3.35;;;26.70;60.10;;;;;;4383087;28;656864;-65
2022/06/26 08:12:10;;;;;;;7.45;3.15;;;26.90;62.30;;;;;;4412746;28;656343;-65
2022/06/26 08:14:57;;;;;;;5.63;3.30;;;26.80;61.40;;;;;;4391926;28;657435;-65
2022/06/26 08:17:44;;;;;;;7.43;2.97;;;27.00;58.50;;;;;;4409865;28;656644;-65
2022/06/26 08:20:31;;;;;;;7.20;3.10;;;27.10;58.40;;;;;;4388426;28;656408;-65
2022/06/26 08:23:20;;;;;;;10.80;2.85;;;27.50;58.80;;;;;;4403068;28;656617;-67
2022/06/26 08:26:07;;;;;;;4.63;3.05;;;27.40;56.60;;;;;;4383131;28;658389;-68
2022/06/26 08:28:54;;;;;;;8.13;3.00;;;27.30;54.80;;;;;;4409791;28;656526;-67
2022/06/26 08:31:41;;;;;;;11.77;3.20;;;27.30;57.30;;;;;;4391030;28;656844;-68
2022/06/26 08:34:28;;;;;;;10.50;3.45;;;27.40;55.30;;;;;;4401578;28;658110;-67
2022/06/26 08:37:16;;;;;;;6.13;2.88;;;27.70;54.00;;;;;;4386633;28;657533;-67
2022/06/26 08:40:05;;;;;;;6.55;2.97;;;27.60;52.50;;;;;;4410616;28;656597;-67
2022/06/26 08:42:53;;;;;;;5.55;2.97;;;27.60;53.30;;;;;;4384340;28;657235;-67
2022/06/26 08:45:40;;;;;;;11.15;3.22;;;27.80;51.90;;;;;;4387749;28;657016;-67
2022/06/26 08:48:28;;;;;;;9.00;2.97;;;27.50;51.00;;;;;;4411298;28;658523;-67
2022/06/26 08:51:15;;;;;;;6.55;2.78;;;28.00;52.70;;;;;;4401654;28;656648;-67
2022/06/26 08:54:02;;;;;;;6.70;2.80;;;28.00;53.00;;;;;;4413499;28;656374;-67
2022/06/26 08:56:51;;;;;;;3.55;2.53;;;27.90;50.70;;;;;;4407086;28;656702;-67
2022/06/26 08:59:38;;;;;;;5.93;2.80;;;28.00;48.90;;;;;;4384709;28;657668;-64
2022/06/26 09:02:25;;;;;;;12.38;3.40;;;28.40;50.20;;;;;;4387655;28;658056;-64
2022/06/26 09:05:12;;;;;;;5.22;2.70;;;28.60;48.50;;;;;;4410886;28;659145;-64
2022/06/26 09:08:00;;;;;;;5.20;2.72;;;28.80;47.50;;;;;;4401963;28;656988;-65
2022/06/26 09:10:48;;;;;;;3.97;2.37;;;28.90;49.60;;;;;;4408610;28;656982;-65
2022/06/26 09:13:40;;;;;;;6.65;2.80;;;29.10;44.60;;;;;;4397840;28;657022;-64
2022/06/26 09:16:31;;;;;;;6.03;2.40;;;29.10;45.20;;;;;;4386079;28;658105;-65
2022/06/26 09:19:20;;;;;;;5.88;2.75;;;29.10;44.20;;;;;;4378295;28;658481;-64
2022/06/26 09:22:08;;;;;;;5.47;2.42;;;29.20;45.40;;;;;;4387633;28;657181;-64
2022/06/26 09:24:56;;;;;;;8.38;3.13;;;29.20;43.00;;;;;;4388202;28;656341;-64
2022/06/26 09:27:44;;;;;;;6.97;2.78;;;28.90;45.00;;;;;;4402849;28;656493;-64
2022/06/26 09:30:32;;;;;;;12.15;2.60;;;28.70;46.30;;;;;;4386904;28;656595;-65
2022/06/26 09:33:20;;;;;;;9.55;2.67;;;29.30;48.60;;;;;;4411394;28;658997;-64
2022/06/26 09:36:07;;;;;;;5.68;2.65;;;29.80;45.80;;;;;;4382420;28;658195;-64
2022/06/26 09:38:54;;;;;;;5.72;2.90;;;29.30;44.10;;;;;;4402503;28;656828;-64
2022/06/26 09:41:41;;;;;;;5.65;2.70;;;29.30;46.30;;;;;;4387186;28;657561;-65
2022/06/26 09:44:28;;;;;;;10.35;2.50;;;29.60;46.50;;;;;;4409626;28;657943;-65
2022/06/26 09:47:28;;;;;;;4.57;2.42;;;29.80;48.90;;;;;;4386300;28;658290;-65
2022/06/26 09:50:15;;;;;;;8.90;2.75;;;30.40;47.60;;;;;;4376820;28;656604;-65
2022/06/26 09:53:02;;;;;;;7.00;2.83;;;29.40;45.40;;;;;;4409184;28;657464;-64
2022/06/26 09:55:51;;;;;;;5.85;2.78;;;29.90;45.20;;;;;;4406595;28;656944;-64
2022/06/26 09:58:38;;;;;;;4.85;2.60;;;30.20;44.50;;;;;;4384260;28;656665;-64
2022/06/26 10:07:36;;;;;;;6.43;2.90;;;30.50;44.70;;;;;;4360737;28;657990;-64
2022/06/26 10:10:24;;;;;;;6.97;2.87;;;30.80;45.00;;;;;;4405345;28;657953;-64
2022/06/26 10:13:11;;;;;;;7.70;2.90;;;30.70;44.50;;;;;;4386071;28;656475;-64
2022/06/26 10:16:03;;;;;;;12.23;3.00;;;29.90;46.20;;;;;;4405355;28;657877;-64
2022/06/26 10:19:01;;;;;;;7.60;2.90;;;30.00;46.00;;;;;;4363401;28;657655;-64
2022/06/26 10:21:50;;;;;;;6.72;2.90;;;30.40;43.30;;;;;;4382327;28;657912;-66
2022/06/26 10:24:47;;;;;;;4.47;2.47;;;29.90;43.50;;;;;;4382007;28;657466;-67
2022/06/26 10:27:36;;;;;;;7.85;2.80;;;29.70;43.70;;;;;;4381462;28;656950;-66
2022/06/26 10:30:24;;;;;;;6.25;2.65;;;29.80;41.70;;;;;;4383433;28;657139;-66
2022/06/26 10:33:13;;;;;;;5.03;2.53;;;30.20;45.10;;;;;;4389278;28;656690;-66
2022/06/26 10:36:02;;;;;;;4.93;2.47;;;30.20;42.00;;;;;;4387528;28;656657;-66
2022/06/26 10:38:50;;;;;;;8.75;2.55;;;30.40;42.20;;;;;;4406250;28;657767;-66
2022/06/26 10:44:58;;;;;;;6.55;2.97;;;30.60;42.50;;;;;;4352237;28;657164;-66
2022/06/26 10:47:47;;;;;;;4.20;2.42;;;30.80;42.20;;;;;;4375728;28;657016;-66
2022/06/26 10:50:35;;;;;;;6.60;2.72;;;31.40;39.10;;;;;;4405845;28;656435;-66
2022/06/26 10:53:24;;;;;;;6.55;2.60;;;31.00;40.00;;;;;;4394465;28;657114;-65
2022/06/26 10:56:12;;;;;;;7.03;2.78;;;30.90;42.20;;;;;;4389236;28;656434;-68
2022/06/26 10:59:00;;;;;;;5.95;2.72;;;30.80;40.80;;;;;;4406953;28;656415;-65
2022/06/26 11:01:47;;;;;;;4.07;2.50;;;30.80;40.60;;;;;;4387944;28;658329;-65
2022/06/26 11:04:44;;;;;;;6.82;2.63;;;31.00;42.60;;;;;;4413828;28;656625;-65
2022/06/26 11:07:41;;;;;;;6.68;2.47;;;31.50;44.50;;;;;;4362296;28;656968;-65
2022/06/26 11:10:28;;;;;;;5.47;2.60;;;32.00;43.30;;;;;;4384552;28;656251;-65
2022/06/26 11:13:17;;;;;;;6.70;2.53;;;31.70;38.50;;;;;;4391632;28;657520;-65
2022/06/26 11:16:04;;;;;;;8.50;2.47;;;31.00;42.30;;;;;;4408817;28;657174;-65
2022/06/26 11:18:51;;;;;;;3.17;2.53;;;31.30;41.10;;;;;;4390130;28;656472;-65
2022/06/26 11:21:38;;;;;;;3.22;2.38;;;31.20;40.20;;;;;;4410395;28;656623;-65
2022/06/26 11:24:25;;;;;;;4.28;2.50;;;31.60;39.40;;;;;;4386147;28;656815;-65
2022/06/26 11:27:13;;;;;;;5.35;2.28;;;31.30;40.40;;;;;;4412616;28;657090;-65
2022/06/26 11:30:02;;;;;;;3.23;2.40;;;31.20;41.80;;;;;;4390237;28;658361;-65
2022/06/26 11:32:49;;;;;;;4.68;2.60;;;30.90;39.90;;;;;;4409455;28;656714;-65
2022/06/26 11:35:36;;;;;;;5.72;2.50;;;31.20;43.10;;;;;;4392309;28;656701;-65
2022/06/26 11:38:23;;;;;;;7.65;2.80;;;31.60;39.50;;;;;;4404429;28;657554;-65
2022/06/26 11:41:10;;;;;;;3.58;2.40;;;31.10;39.50;;;;;;4391328;28;656572;-65
2022/06/26 11:43:58;;;;;;;7.03;2.70;;;31.30;41.90;;;;;;4409900;28;658539;-65
2022/06/26 11:46:46;;;;;;;4.43;2.65;;;31.60;40.80;;;;;;4401726;28;656518;-65
2022/06/26 11:49:34;;;;;;;3.78;2.40;;;32.10;40.60;;;;;;4411134;28;658904;-65
2022/06/26 11:52:21;;;;;;;5.13;2.30;;;31.90;39.30;;;;;;4390733;28;656529;-65
2022/06/26 11:55:09;;;;;;;5.00;2.40;;;31.80;39.50;;;;;;4414785;28;656929;-65
2022/06/26 11:57:56;;;;;;;7.43;2.37;;;31.60;40.80;;;;;;4390807;28;657050;-65
2022/06/26 12:00:44;;;;;;;5.90;2.60;;;31.60;38.10;;;;;;4409253;28;656883;-64
2022/06/26 12:03:33;;;;;;;5.28;2.88;;;31.60;41.30;;;;;;4391967;28;656359;-64
2022/06/26 12:06:34;;;;;;;4.07;2.47;;;31.30;38.60;;;;;;4404388;28;656944;-65
2022/06/26 12:09:23;;;;;;;2.70;2.30;;;32.10;41.10;;;;;;4392165;28;656429;-65
2022/06/26 12:12:13;;;;;;;3.80;2.47;;;31.50;37.80;;;;;;4392715;28;656452;-65
2022/06/26 12:15:00;;;;;;;7.18;2.63;;;31.80;38.90;;;;;;4391207;28;657204;-65
2022/06/26 12:17:52;;;;;;;6.37;2.97;;;31.90;38.50;;;;;;4414740;28;656674;-65
2022/06/26 12:20:42;;;;;;;6.38;2.60;;;31.50;40.40;;;;;;4410028;28;656689;-65
2022/06/26 12:23:33;;;;;;;4.63;2.40;;;32.10;39.20;;;;;;4414448;28;656599;-65
2022/06/26 12:26:22;;;;;;;4.03;2.47;;;32.40;40.50;;;;;;4371191;28;656970;-65
2022/06/26 12:29:10;;;;;;;10.07;2.50;;;32.10;39.20;;;;;;4410854;28;657788;-64
2022/06/26 12:31:57;;;;;;;3.85;2.72;;;32.20;38.90;;;;;;4386328;28;659489;-64
2022/06/26 12:34:44;;;;;;;8.63;2.50;;;31.80;39.70;;;;;;4407887;28;656919;-64
2022/06/26 12:37:32;;;;;;;2.88;2.60;;;32.40;41.30;;;;;;4390987;28;656350;-65
2022/06/26 12:40:20;;;;;;;4.25;2.25;;;32.60;38.60;;;;;;4409606;28;656971;-65
2022/06/26 12:43:07;;;;;;;5.97;2.60;;;32.60;37.40;;;;;;4414417;28;655765;-64
2022/06/26 12:45:55;;;;;;;7.15;2.40;;;32.10;38.30;;;;;;4410124;28;656510;-64
2022/06/26 12:48:42;;;;;;;3.25;2.38;;;32.90;38.90;;;;;;4412272;28;657714;-65
2022/06/26 12:51:29;;;;;;;3.20;2.38;;;31.90;37.70;;;;;;4410018;28;656389;-64
2022/06/26 12:54:18;;;;;;;5.55;2.75;;;31.70;38.40;;;;;;4388669;28;656976;-64
2022/06/26 12:57:05;;;;;;;3.00;2.25;;;31.90;38.90;;;;;;4388326;28;657806;-65
2022/06/26 12:59:53;;;;;;;5.40;2.50;;;31.80;37.40;;;;;;4405101;28;658063;-64
2022/06/26 13:02:40;;;;;;;7.30;2.40;;;32.00;39.60;;;;;;4398741;28;656561;-65
2022/06/26 13:05:27;;;;;;;3.40;2.30;;;32.40;38.60;;;;;;4410924;28;657980;-65
2022/06/26 13:08:14;;;;;;;7.15;2.60;;;32.60;37.60;;;;;;4408702;28;656283;-65
2022/06/26 13:11:24;;;;;;;11.27;3.08;;;32.40;38.80;;;;;;4391912;28;656462;-64
2022/06/26 13:14:11;;;;;;;3.37;2.43;;;32.70;37.90;;;;;;4368091;28;657303;-65
2022/06/26 13:16:58;;;;;;;5.20;2.30;;;32.60;38.90;;;;;;4409963;28;656042;-64
2022/06/26 13:19:45;;;;;;;4.28;2.50;;;32.60;35.50;;;;;;4388195;28;656384;-64
2022/06/26 13:22:33;;;;;;;3.67;2.25;;;32.40;38.60;;;;;;4406300;28;658278;-64
2022/06/26 13:25:20;;;;;;;4.05;2.22;;;32.10;38.90;;;;;;4401618;28;656421;-64
2022/06/26 13:28:09;;;;;;;4.17;2.43;;;32.50;39.50;;;;;;4412497;28;657878;-64
2022/06/26 13:30:56;;;;;;;3.33;2.55;;;32.80;36.80;;;;;;4389602;28;656238;-64
2022/06/26 13:33:43;;;;;;;9.60;2.33;;;32.10;37.10;;;;;;4408975;28;657121;-65
2022/06/26 13:36:30;;;;;;;5.07;2.20;;;32.30;37.60;;;;;;4393347;28;657684;-65
2022/06/26 13:39:17;;;;;;;2.75;2.25;;;31.70;36.60;;;;;;4410270;28;657313;-64
2022/06/26 13:42:06;;;;;;;5.60;1.98;;;31.70;37.10;;;;;;4387634;28;657043;-64
2022/06/26 13:44:54;;;;;;;3.33;2.47;;;31.70;36.60;;;;;;4408203;28;656797;-64
2022/06/26 13:47:42;;;;;;;4.20;2.10;;;32.60;37.20;;;;;;4390588;28;657370;-65
2022/06/26 13:50:29;;;;;;;5.63;2.20;;;32.40;35.90;;;;;;4405381;28;656757;-64
2022/06/26 13:53:16;;;;;;;4.82;2.20;;;32.90;36.90;;;;;;4387101;28;656469;-64
2022/06/26 13:56:04;;;;;;;6.88;2.47;;;32.90;36.90;;;;;;4405207;28;657043;-65
2022/06/26 13:58:51;;;;;;;7.40;2.03;;;33.00;34.60;;;;;;4388242;28;656198;-65
2022/06/26 14:01:39;;;;;;;8.30;2.20;;;32.30;35.80;;;;;;4406677;28;657852;-65
2022/06/26 14:04:26;;;;;;;2.33;2.03;;;32.60;36.70;;;;;;4380546;28;657265;-65
2022/06/26 14:07:14;;;;;;;4.63;1.98;;;33.20;35.40;;;;;;4407001;28;657504;-65
2022/06/26 14:10:01;;;;;;;6.65;2.25;;;32.60;35.60;;;;;;4389347;28;657033;-65
2022/06/26 14:12:48;;;;;;;5.60;2.28;;;32.40;38.50;;;;;;4414093;28;657022;-64
2022/06/26 14:15:35;;;;;;;5.55;2.70;;;32.30;36.10;;;;;;4391696;28;656659;-64
2022/06/26 14:18:24;;;;;;;7.10;2.57;;;33.00;38.30;;;;;;4408342;28;657089;-64
2022/06/26 14:21:12;;;;;;;7.43;2.67;;;33.10;36.60;;;;;;4391100;28;656656;-64
2022/06/26 14:27:04;;;;;;;4.45;2.25;;;33.20;38.90;;;;;;4387194;28;657141;-65
2022/06/26 14:29:52;;;;;;;4.38;2.42;;;33.30;37.60;;;;;;4391706;28;656214;-65
2022/06/26 14:32:39;;;;;;;5.63;2.63;;;33.30;35.50;;;;;;4408368;28;656766;-64
2022/06/26 14:35:27;;;;;;;5.45;2.67;;;32.70;38.50;;;;;;4386467;28;657118;-65